Terminal Aerodrome Forecast
Issued by NWS

Home | Current Version | Previous Version | Text Only | Print | Product List | Glossary On
Versions: 1 2 3 4 5 6 7 8 9 10 11 12 13 14 15 16 17 18 19 20 21 22 23 24 25 26 27 28 29 30 31
000
FTUS41 KRNK 282349 CCA
TAFBCB
TAF COR
KBCB 282349Z 2900/2924 00000KT P6SM SCT250
     FM290800 00000KT P6SM SCT150 BKN250
     FM291700 19007KT P6SM -SHRA BKN045 OVC100
     FM292100 22010G20KT P6SM BKN045=

USA.gov is the U.S. government's official web portal to all federal, state and local government web resources and services.